createdAt,value
2023-03-26T00:00:54.259Z,33.33
2023-03-26T00:03:21.090Z,36.83
2023-03-26T00:05:48.334Z,37.00
2023-03-26T00:08:16.058Z,40.05
2023-03-26T00:10:43.266Z,38.20
2023-03-26T00:13:10.353Z,47.03
2023-03-26T00:15:37.276Z,39.78
2023-03-26T00:18:03.984Z,47.20
2023-03-26T00:20:32.948Z,43.35
2023-03-26T00:23:01.600Z,41.60
2023-03-26T00:25:28.043Z,36.97
2023-03-26T00:27:54.662Z,36.25
2023-03-26T00:30:21.092Z,45.05
2023-03-26T00:32:53.722Z,44.92
2023-03-26T00:35:20.887Z,48.58
2023-03-26T00:37:47.930Z,47.28
2023-03-26T00:40:14.482Z,43.08
2023-03-26T00:42:42.592Z,37.60
2023-03-26T00:45:09.279Z,34.90
2023-03-26T00:47:36.289Z,37.70
2023-03-26T00:50:04.373Z,35.78
2023-03-26T00:52:31.787Z,32.90
2023-03-26T00:54:58.350Z,38.47
2023-03-26T00:57:35.849Z,37.50
2023-03-26T01:00:06.825Z,43.33
2023-03-26T01:02:35.535Z,34.40
2023-03-26T01:05:22.712Z,33.50
2023-03-26T01:07:49.266Z,39.33
2023-03-26T01:10:15.807Z,43.45
2023-03-26T01:12:42.263Z,40.03
2023-03-26T01:15:09.839Z,33.95
2023-03-26T01:17:38.004Z,37.67
2023-03-26T01:20:17.447Z,41.13
2023-03-26T01:22:49.482Z,27.73
2023-03-26T01:25:16.135Z,35.88
2023-03-26T01:27:44.678Z,42.20
2023-03-26T01:30:17.471Z,35.72
2023-03-26T01:32:49.155Z,33.93
2023-03-26T01:35:31.174Z,40.90
2023-03-26T01:38:12.934Z,39.55
2023-03-26T01:40:42.981Z,36.38
2023-03-26T01:43:17.863Z,36.65
2023-03-26T01:45:46.236Z,29.80
2023-03-26T01:48:13.347Z,40.00
2023-03-26T01:50:39.847Z,32.15
2023-03-26T01:53:07.245Z,32.80
2023-03-26T01:55:54.093Z,26.90
2023-03-26T01:58:33.104Z,30.50
2023-03-26T02:01:05.677Z,34.17
2023-03-26T02:03:38.935Z,39.65
2023-03-26T02:06:07.773Z,31.00
2023-03-26T02:08:38.416Z,31.77
2023-03-26T02:11:13.341Z,28.42
2023-03-26T02:13:41.018Z,28.45
2023-03-26T02:16:09.154Z,34.70
2023-03-26T02:18:41.811Z,29.83
2023-03-26T02:21:10.969Z,30.05
2023-03-26T02:23:37.823Z,18.63
2023-03-26T02:26:08.259Z,26.30
2023-03-26T02:28:35.030Z,26.02
2023-03-26T02:31:03.503Z,22.58
2023-03-26T02:33:30.414Z,20.17
2023-03-26T02:35:59.473Z,27.95
2023-03-26T02:38:26.807Z,22.40
2023-03-26T02:40:54.454Z,18.75
2023-03-26T02:43:21.040Z,26.00
2023-03-26T02:45:47.670Z,27.20
2023-03-26T02:48:15.234Z,21.10
2023-03-26T02:50:42.538Z,24.17
2023-03-26T02:53:09.186Z,26.58
2023-03-26T02:55:35.785Z,23.67
2023-03-26T02:58:02.280Z,22.27
2023-03-26T03:00:29.068Z,22.05
2023-03-26T03:02:57.922Z,25.48
2023-03-26T03:05:28.981Z,32.50
2023-03-26T03:07:58.114Z,24.10
2023-03-26T03:10:25.707Z,25.90
2023-03-26T03:12:52.211Z,30.75
2023-03-26T03:15:18.840Z,33.35
2023-03-26T03:17:45.343Z,24.05
2023-03-26T03:20:12.162Z,24.27
2023-03-26T03:22:38.622Z,27.55
2023-03-26T03:25:09.229Z,28.20
2023-03-26T03:27:39.308Z,22.58
2023-03-26T03:30:06.204Z,25.25
2023-03-26T03:32:32.662Z,18.70
2023-03-26T03:34:59.188Z,28.70
2023-03-26T03:37:27.051Z,19.58
2023-03-26T03:39:53.575Z,27.75
2023-03-26T03:42:20.269Z,23.50
2023-03-26T03:44:46.818Z,25.77
2023-03-26T03:47:13.837Z,27.52
2023-03-26T03:49:40.867Z,21.33
2023-03-26T03:52:07.564Z,24.25
2023-03-26T03:54:34.100Z,20.17
2023-03-26T03:57:02.285Z,20.17
2023-03-26T03:59:28.895Z,26.00
2023-03-26T04:01:55.339Z,25.65
2023-03-26T04:04:22.205Z,26.60
2023-03-26T04:06:48.697Z,19.13
2023-03-26T04:09:15.460Z,21.80
2023-03-26T04:11:44.783Z,23.52
2023-03-26T04:14:11.686Z,20.42
2023-03-26T04:16:38.223Z,22.75
2023-03-26T04:19:04.696Z,21.75
2023-03-26T04:21:31.285Z,22.65
2023-03-26T04:23:57.777Z,21.02
2023-03-26T04:26:24.368Z,22.00
2023-03-26T04:28:53.377Z,22.52
2023-03-26T04:31:24.458Z,22.20
2023-03-26T04:33:55.325Z,25.83
2023-03-26T04:36:29.356Z,24.88
2023-03-26T04:38:58.317Z,21.55
2023-03-26T04:41:27.818Z,25.55
2023-03-26T04:43:54.570Z,19.88
2023-03-26T04:46:24.541Z,30.15
2023-03-26T04:48:51.442Z,21.70
2023-03-26T04:51:18.917Z,20.75
2023-03-26T04:53:49.735Z,25.27
2023-03-26T04:56:19.195Z,19.23
2023-03-26T04:58:48.181Z,21.85
2023-03-26T05:01:16.766Z,26.38
2023-03-26T05:03:45.884Z,24.83
2023-03-26T05:06:13.561Z,34.72
2023-03-26T05:08:40.011Z,25.60
2023-03-26T05:11:11.653Z,21.60
2023-03-26T05:13:38.594Z,24.10
2023-03-26T05:16:05.568Z,20.58
2023-03-26T05:18:32.408Z,30.92
2023-03-26T05:20:58.959Z,23.25
2023-03-26T05:23:25.732Z,19.13
2023-03-26T05:25:52.208Z,22.38
2023-03-26T05:28:20.834Z,19.30
2023-03-26T05:30:47.317Z,22.15
2023-03-26T05:33:13.872Z,20.05
2023-03-26T05:35:40.839Z,27.50
2023-03-26T05:38:08.378Z,23.05
2023-03-26T05:40:34.938Z,20.17
2023-03-26T05:43:01.481Z,23.50
2023-03-26T05:45:28.012Z,32.78
2023-03-26T05:47:55.918Z,26.23
2023-03-26T05:50:22.583Z,20.15
2023-03-26T05:52:49.162Z,24.55
2023-03-26T05:55:16.107Z,17.27
2023-03-26T05:57:42.760Z,19.52
2023-03-26T06:00:11.499Z,24.45
2023-03-26T06:02:38.064Z,18.45
2023-03-26T06:05:07.939Z,23.88
2023-03-26T06:07:35.190Z,28.42
2023-03-26T06:10:02.873Z,20.83
2023-03-26T06:12:30.606Z,19.13
2023-03-26T06:14:57.129Z,14.23
2023-03-26T06:17:23.700Z,18.15
2023-03-26T06:19:50.211Z,20.20
2023-03-26T06:22:16.632Z,23.95
2023-03-26T06:24:43.082Z,16.25
2023-03-26T06:27:09.593Z,24.30
2023-03-26T06:29:38.132Z,17.60
2023-03-26T06:32:16.179Z,14.73
2023-03-26T06:34:45.358Z,27.98
2023-03-26T06:37:11.832Z,22.10
2023-03-26T06:39:38.261Z,21.45
2023-03-26T06:42:05.068Z,17.70
2023-03-26T06:44:34.288Z,20.95
2023-03-26T06:47:01.050Z,19.20
2023-03-26T06:49:28.722Z,20.05
2023-03-26T06:51:55.405Z,20.85
2023-03-26T06:54:21.883Z,14.32
2023-03-26T06:56:48.576Z,20.92
2023-03-26T06:59:15.028Z,21.05
2023-03-26T07:01:41.501Z,19.90
2023-03-26T07:04:08.062Z,20.35
2023-03-26T07:06:34.658Z,17.90
2023-03-26T07:09:01.073Z,16.13
2023-03-26T07:11:27.651Z,19.90
2023-03-26T07:13:56.341Z,24.08
2023-03-26T07:16:26.164Z,22.73
2023-03-26T07:18:54.419Z,19.15
2023-03-26T07:21:21.687Z,23.67
2023-03-26T07:23:48.334Z,22.88
2023-03-26T07:26:27.154Z,17.80
2023-03-26T07:29:26.070Z,27.10
2023-03-26T07:32:08.321Z,24.60
2023-03-26T07:34:47.546Z,22.63
2023-03-26T07:37:29.643Z,23.67
2023-03-26T07:39:57.608Z,16.95
2023-03-26T07:42:24.020Z,23.23
2023-03-26T07:44:50.447Z,19.48
2023-03-26T07:47:29.843Z,19.60
2023-03-26T07:49:57.935Z,16.00
2023-03-26T07:52:25.414Z,20.63
2023-03-26T07:54:52.071Z,15.77
2023-03-26T07:57:44.453Z,17.90
2023-03-26T08:00:17.739Z,20.35
2023-03-26T08:02:46.620Z,17.50
2023-03-26T08:05:20.765Z,20.88
2023-03-26T08:08:02.224Z,23.25
2023-03-26T08:10:31.720Z,20.45
2023-03-26T08:13:10.842Z,12.85
2023-03-26T08:15:41.649Z,13.85
2023-03-26T08:18:27.631Z,18.50
2023-03-26T08:21:06.368Z,12.00
2023-03-26T08:23:50.556Z,17.23
2023-03-26T08:26:47.729Z,10.85
2023-03-26T08:29:18.243Z,10.82
2023-03-26T08:31:45.925Z,8.82
2023-03-26T08:34:12.884Z,14.95
2023-03-26T08:36:39.733Z,91.25
2023-03-26T08:39:06.790Z,17.85
2023-03-26T08:41:46.352Z,9.02
2023-03-26T08:44:13.756Z,9.65
2023-03-26T08:46:57.350Z,13.95
2023-03-26T08:49:42.702Z,10.68
2023-03-26T08:52:35.545Z,14.10
2023-03-26T08:55:22.092Z,9.65
2023-03-26T08:57:48.488Z,11.25
2023-03-26T09:00:38.242Z,8.93
2023-03-26T09:03:23.534Z,10.75
2023-03-26T09:05:56.180Z,8.30
2023-03-26T09:08:34.936Z,11.60
2023-03-26T09:11:20.060Z,9.13
2023-03-26T09:13:52.617Z,14.57
2023-03-26T09:16:19.129Z,14.68
2023-03-26T09:19:08.315Z,12.52
2023-03-26T09:21:53.179Z,7.72
2023-03-26T09:24:38.012Z,10.38
2023-03-26T09:27:07.494Z,12.27
2023-03-26T09:29:52.369Z,9.77
2023-03-26T09:32:45.789Z,10.50
2023-03-26T09:35:13.878Z,5.18
2023-03-26T09:37:56.731Z,8.73
2023-03-26T09:40:37.191Z,9.40
2023-03-26T09:43:21.939Z,6.80
2023-03-26T09:45:48.487Z,4.72
2023-03-26T09:48:28.252Z,7.45
2023-03-26T09:51:03.697Z,7.30
2023-03-26T09:53:42.597Z,6.22
2023-03-26T09:56:09.341Z,7.75
2023-03-26T09:58:55.748Z,7.85
2023-03-26T10:01:32.307Z,4.18
2023-03-26T10:04:08.204Z,4.28
2023-03-26T10:06:35.014Z,3.78
2023-03-26T10:09:14.946Z,2.90
2023-03-26T10:11:41.791Z,7.88
2023-03-26T10:14:08.436Z,3.72
2023-03-26T10:16:41.071Z,6.82
2023-03-26T10:19:20.158Z,2.77
2023-03-26T10:22:05.517Z,4.22
2023-03-26T10:24:32.192Z,1.23
2023-03-26T10:27:08.719Z,5.75
2023-03-26T10:29:58.612Z,2.38
2023-03-26T10:32:38.110Z,2.88
2023-03-26T10:35:23.923Z,1.80
2023-03-26T10:38:01.501Z,8.05
2023-03-26T10:40:57.814Z,1.55
2023-03-26T10:43:30.476Z,3.47
2023-03-26T10:45:57.236Z,1.17
2023-03-26T10:48:23.852Z,0.95
2023-03-26T10:51:02.862Z,1.55
2023-03-26T10:53:42.034Z,1.20
2023-03-26T10:56:23.704Z,2.38
2023-03-26T10:58:53.334Z,3.15
2023-03-26T11:01:23.213Z,1.08
2023-03-26T11:03:55.140Z,3.08
2023-03-26T11:06:36.449Z,3.40
2023-03-26T11:09:07.640Z,0.98
2023-03-26T11:11:38.675Z,1.48
2023-03-26T11:14:05.586Z,2.78
2023-03-26T11:16:56.587Z,2.65
2023-03-26T11:19:34.444Z,1.92
2023-03-26T11:22:24.376Z,0.80
2023-03-26T11:25:06.817Z,2.50
2023-03-26T11:27:49.432Z,1.48
2023-03-26T11:30:19.089Z,1.20
2023-03-26T11:32:52.076Z,1.58
2023-03-26T11:35:40.513Z,1.55
2023-03-26T11:38:33.014Z,0.68
2023-03-26T11:41:00.524Z,1.90
2023-03-26T11:43:32.900Z,1.00
2023-03-26T11:46:00.135Z,1.52
2023-03-26T11:48:39.808Z,1.45
2023-03-26T11:51:11.772Z,0.75
2023-03-26T11:53:39.554Z,2.08
2023-03-26T11:56:15.222Z,0.45
2023-03-26T11:58:42.148Z,1.80
2023-03-26T12:01:16.405Z,0.95
2023-03-26T12:03:55.879Z,1.20
2023-03-26T12:06:25.805Z,0.65
2023-03-26T12:08:54.112Z,1.45
2023-03-26T12:11:24.375Z,1.40
2023-03-26T12:14:02.293Z,1.15
2023-03-26T12:16:29.056Z,3.90
2023-03-26T12:19:07.546Z,1.38
2023-03-26T12:21:45.236Z,1.02
2023-03-26T12:24:25.234Z,0.88
2023-03-26T12:26:56.379Z,0.80
2023-03-26T12:29:23.265Z,1.88
2023-03-26T12:31:52.561Z,2.65
2023-03-26T12:34:20.038Z,0.50
2023-03-26T12:36:54.538Z,1.27
2023-03-26T12:40:10.011Z,1.45
2023-03-26T12:44:47.592Z,1.33
2023-03-26T12:45:12.980Z,1.95
2023-03-26T12:47:57.723Z,1.23
2023-03-26T12:50:34.427Z,3.42
2023-03-26T12:53:20.079Z,1.88
2023-03-26T12:55:49.613Z,3.20
2023-03-26T12:58:28.453Z,0.85
2023-03-26T13:01:06.690Z,0.70
2023-03-26T13:03:52.954Z,2.72
2023-03-26T13:06:29.206Z,2.10
2023-03-26T13:09:05.100Z,1.40
2023-03-26T13:11:31.602Z,1.05
2023-03-26T13:13:58.140Z,2.50
2023-03-26T13:16:42.600Z,3.42
2023-03-26T13:19:29.010Z,1.33
2023-03-26T13:21:56.730Z,2.88
2023-03-26T13:24:41.490Z,1.10
2023-03-26T13:27:28.190Z,1.42
2023-03-26T13:29:56.809Z,0.85
2023-03-26T13:32:37.145Z,2.17
2023-03-26T13:35:12.748Z,1.60
2023-03-26T13:37:42.404Z,1.80
2023-03-26T13:40:16.391Z,2.50
2023-03-26T13:42:57.249Z,2.30
2023-03-26T13:45:31.819Z,1.77
2023-03-26T13:47:59.237Z,2.75
2023-03-26T13:50:27.555Z,2.75
2023-03-26T13:53:03.120Z,1.20
2023-03-26T13:55:36.206Z,3.20
2023-03-26T13:58:05.049Z,1.60
2023-03-26T14:00:54.669Z,1.65
2023-03-26T14:03:40.507Z,1.30
2023-03-26T14:06:11.341Z,2.30
2023-03-26T14:08:45.955Z,1.45
2023-03-26T14:11:28.054Z,3.00
2023-03-26T14:14:04.027Z,2.42
2023-03-26T14:16:39.471Z,2.08
2023-03-26T14:19:08.925Z,3.45
2023-03-26T14:21:55.322Z,3.33
2023-03-26T14:24:40.384Z,3.70
2023-03-26T14:27:06.800Z,3.40
2023-03-26T14:29:56.681Z,2.47
2023-03-26T14:32:24.448Z,2.72
2023-03-26T14:34:51.233Z,4.25
2023-03-26T14:37:33.168Z,3.88
2023-03-26T14:40:06.286Z,5.60
2023-03-26T14:42:40.443Z,9.13
2023-03-26T14:45:20.572Z,10.13
2023-03-26T14:47:56.109Z,9.15
2023-03-26T14:50:31.537Z,9.65
2023-03-26T14:53:01.313Z,12.18
2023-03-26T14:55:35.338Z,16.42
2023-03-26T15:00:46.566Z,17.00
2023-03-26T15:03:13.353Z,17.55
2023-03-26T15:05:48.990Z,21.70
2023-03-26T15:08:36.183Z,16.38
2023-03-26T15:11:05.707Z,20.20
2023-03-26T15:13:51.315Z,29.08
2023-03-26T15:16:29.679Z,15.30
2023-03-26T15:18:59.203Z,19.33
2023-03-26T15:21:46.178Z,16.63
2023-03-26T15:24:15.766Z,15.13
2023-03-26T15:27:01.654Z,12.40
2023-03-26T15:29:48.148Z,14.32
2023-03-26T15:32:26.050Z,16.33
2023-03-26T15:35:09.883Z,17.67
2023-03-26T15:40:09.830Z,26.15
2023-03-26T15:42:38.131Z,23.73
2023-03-26T15:45:14.248Z,20.20
2023-03-26T15:47:43.705Z,20.88
2023-03-26T15:50:29.562Z,23.73
2023-03-26T15:53:06.636Z,15.25
2023-03-26T15:55:36.646Z,23.00
2023-03-26T15:58:15.033Z,14.30
2023-03-26T16:01:03.133Z,17.58
2023-03-26T16:03:39.548Z,20.85
2023-03-26T16:06:09.163Z,21.40
2023-03-26T16:08:53.078Z,14.68
2023-03-26T16:11:52.243Z,20.42
2023-03-26T16:14:23.298Z,14.45
2023-03-26T16:16:54.840Z,14.02
2023-03-26T16:19:21.901Z,22.70
2023-03-26T16:21:57.627Z,20.40
2023-03-26T16:24:27.061Z,20.50
2023-03-26T16:27:09.268Z,21.17
2023-03-26T16:29:56.431Z,18.33
2023-03-26T16:32:28.675Z,15.18
2023-03-26T16:34:57.420Z,18.77
2023-03-26T16:37:46.133Z,19.10
2023-03-26T16:40:20.770Z,19.73
2023-03-26T16:42:48.098Z,14.38
2023-03-26T16:45:22.147Z,20.27
2023-03-26T16:47:56.930Z,23.20
2023-03-26T16:50:43.786Z,15.52
2023-03-26T16:53:32.054Z,13.43
2023-03-26T16:55:58.497Z,15.75
2023-03-26T16:58:27.783Z,16.30
2023-03-26T17:01:03.392Z,16.58
2023-03-26T17:03:31.910Z,8.40
2023-03-26T17:06:03.452Z,14.77
2023-03-26T17:08:37.221Z,23.90
2023-03-26T17:11:16.458Z,12.13
2023-03-26T17:13:56.310Z,15.60
2023-03-26T17:16:28.843Z,12.98
2023-03-26T17:19:08.027Z,15.00
2023-03-26T17:21:55.781Z,11.80
2023-03-26T17:24:30.941Z,18.10
2023-03-26T17:27:03.286Z,14.13
2023-03-26T17:29:33.073Z,12.85
2023-03-26T17:32:09.283Z,12.93
2023-03-26T17:34:38.857Z,12.95
2023-03-26T17:37:09.555Z,10.73
2023-03-26T17:39:39.024Z,12.77
2023-03-26T17:42:13.813Z,9.80
2023-03-26T17:44:43.488Z,13.93
2023-03-26T17:47:24.983Z,10.70
2023-03-26T17:49:55.497Z,12.27
2023-03-26T17:52:26.231Z,7.97
2023-03-26T17:54:55.417Z,12.10
2023-03-26T17:57:22.182Z,13.18
2023-03-26T17:59:49.923Z,19.48
2023-03-26T18:02:18.608Z,10.02
2023-03-26T18:04:48.286Z,7.60
2023-03-26T18:07:33.951Z,13.57
2023-03-26T18:10:00.721Z,10.25
2023-03-26T18:12:46.680Z,21.65
2023-03-26T18:15:13.756Z,10.88
2023-03-26T18:17:44.446Z,15.10
2023-03-26T18:20:19.485Z,24.13
2023-03-26T18:22:46.347Z,11.75
2023-03-26T18:25:21.725Z,14.48
2023-03-26T18:27:48.529Z,18.05
2023-03-26T18:30:22.820Z,15.73
2023-03-26T18:33:00.182Z,22.63
2023-03-26T18:35:27.569Z,12.73
2023-03-26T18:37:59.967Z,10.07
2023-03-26T18:40:33.955Z,10.07
2023-03-26T18:43:08.261Z,14.65
2023-03-26T18:45:36.722Z,18.77
2023-03-26T18:48:06.339Z,16.63
2023-03-26T18:50:40.541Z,10.35
2023-03-26T18:53:09.332Z,14.82
2023-03-26T18:55:39.556Z,13.48
2023-03-26T18:58:28.538Z,14.15
2023-03-26T19:00:57.482Z,11.98
2023-03-26T19:03:24.993Z,11.80
2023-03-26T19:05:56.344Z,13.98
2023-03-26T19:08:24.537Z,11.65
2023-03-26T19:10:54.828Z,10.50
2023-03-26T19:13:22.292Z,14.88
2023-03-26T19:15:51.414Z,13.93
2023-03-26T19:18:20.083Z,8.73
2023-03-26T19:20:48.916Z,11.10
2023-03-26T19:23:18.117Z,9.10
2023-03-26T19:25:49.404Z,10.93
2023-03-26T19:28:23.015Z,11.32
2023-03-26T19:33:21.107Z,12.98
2023-03-26T19:36:03.644Z,10.57
2023-03-26T19:38:38.094Z,11.45
2023-03-26T19:41:04.982Z,11.75
2023-03-26T19:43:34.374Z,6.80
2023-03-26T19:46:01.572Z,10.70
2023-03-26T19:48:46.317Z,11.52
2023-03-26T19:51:20.007Z,11.80
2023-03-26T19:53:53.043Z,10.82
2023-03-26T19:56:20.941Z,14.90
2023-03-26T19:58:47.593Z,10.55
2023-03-26T20:01:21.004Z,9.05
2023-03-26T20:03:49.361Z,18.35
2023-03-26T20:06:17.205Z,12.02
2023-03-26T20:08:46.902Z,12.55
2023-03-26T20:11:18.756Z,16.02
2023-03-26T20:13:45.381Z,14.23
2023-03-26T20:16:31.987Z,8.52
2023-03-26T20:19:04.583Z,15.25
2023-03-26T20:21:38.307Z,9.43
2023-03-26T20:24:12.718Z,9.15
2023-03-26T20:26:49.911Z,13.93
2023-03-26T20:29:29.426Z,12.20
2023-03-26T20:31:56.209Z,11.10
2023-03-26T20:34:24.262Z,12.00
2023-03-26T20:36:55.939Z,8.05
2023-03-26T20:39:26.299Z,7.38
2023-03-26T20:41:53.636Z,15.45
2023-03-26T20:44:21.242Z,11.80
2023-03-26T20:46:54.230Z,11.15
2023-03-26T20:49:22.306Z,10.18
2023-03-26T20:51:48.980Z,10.20
2023-03-26T20:54:17.761Z,16.40
2023-03-26T20:56:51.279Z,8.35
2023-03-26T20:59:24.672Z,9.48
2023-03-26T21:01:51.397Z,8.90
2023-03-26T21:04:21.996Z,9.75
2023-03-26T21:06:48.989Z,14.63
2023-03-26T21:09:17.794Z,8.18
2023-03-26T21:11:44.506Z,9.68
2023-03-26T21:14:17.027Z,12.73
2023-03-26T21:16:43.772Z,12.98
2023-03-26T21:19:10.550Z,15.20
2023-03-26T21:21:53.491Z,12.73
2023-03-26T21:24:45.164Z,19.58
2023-03-26T21:27:19.435Z,7.22
2023-03-26T21:29:46.396Z,10.32
2023-03-26T21:32:14.455Z,20.42
2023-03-26T21:34:47.876Z,12.45
2023-03-26T21:37:22.808Z,11.45
2023-03-26T21:39:49.534Z,11.10
2023-03-26T21:42:16.617Z,11.50
2023-03-26T21:44:43.157Z,11.52
2023-03-26T21:47:10.104Z,9.77
2023-03-26T21:49:37.462Z,9.02
2023-03-26T21:52:10.271Z,16.85
2023-03-26T21:54:37.070Z,10.47
2023-03-26T21:57:09.652Z,14.57
2023-03-26T21:59:36.185Z,13.48
2023-03-26T22:02:06.429Z,13.68
2023-03-26T22:04:36.518Z,7.10
2023-03-26T22:07:11.791Z,8.90
2023-03-26T22:09:38.522Z,16.05
2023-03-26T22:12:05.466Z,15.30
2023-03-26T22:14:32.812Z,13.82
2023-03-26T22:16:59.282Z,14.82
2023-03-26T22:19:25.839Z,8.13
2023-03-26T22:21:52.358Z,10.02
2023-03-26T22:24:31.997Z,13.10
2023-03-26T22:27:03.103Z,10.45
2023-03-26T22:29:31.815Z,13.63
2023-03-26T22:32:01.366Z,12.32
2023-03-26T22:34:28.030Z,12.50
2023-03-26T22:36:54.487Z,14.52
2023-03-26T22:39:21.591Z,10.48
2023-03-26T22:41:48.052Z,5.47
2023-03-26T22:44:20.121Z,11.93
2023-03-26T22:46:49.395Z,10.25
2023-03-26T22:49:16.572Z,12.88
2023-03-26T22:51:43.114Z,10.38
2023-03-26T22:54:09.718Z,13.13
2023-03-26T22:56:36.448Z,11.57
2023-03-26T22:59:03.923Z,15.85
2023-03-26T23:01:30.645Z,11.63
2023-03-26T23:03:57.744Z,9.73
2023-03-26T23:06:24.321Z,14.85
2023-03-26T23:08:51.389Z,11.10
2023-03-26T23:11:19.469Z,13.02
2023-03-26T23:13:46.422Z,11.65
2023-03-26T23:16:13.579Z,10.80
2023-03-26T23:18:41.173Z,13.80
2023-03-26T23:21:12.793Z,10.13
2023-03-26T23:23:39.830Z,10.32
2023-03-26T23:26:06.956Z,7.70
2023-03-26T23:28:34.280Z,7.95
2023-03-26T23:31:02.389Z,9.10
2023-03-26T23:33:30.475Z,10.45
2023-03-26T23:35:57.920Z,10.95
2023-03-26T23:38:25.382Z,12.93
2023-03-26T23:40:57.333Z,10.90
2023-03-26T23:43:24.301Z,11.10
2023-03-26T23:45:51.063Z,12.90
2023-03-26T23:48:22.852Z,17.88
2023-03-26T23:50:52.890Z,9.98
2023-03-26T23:53:30.669Z,9.15
2023-03-26T23:55:58.099Z,8.20
2023-03-26T23:58:27.132Z,8.95
